Waldo, AR (71770)

11:02 AM CDT on September 23, 2014 (GMT -0500)
Linda Ave | Change Station
CLOSE
Current Station
Personal Weather Station
Location: Magnolia, AR
Elevation: 377 ft
Nearby Weather Stations

Elev 377 ft 33.28 °N, 93.23 °W | Updated 3 minutes ago

Clear
Clear
70.5 °F
Feels Like 76 °F
N
3.8
Wind Variable Wind from ENE
Gusts 9.2 mph

Today
High -- | Low -- °F
--% Chance of Precip.
Yesterday
High -- | Low -- °F
Precip. -- in
7:01 AM 7:08 PM
Waning Crescent, 0% visible
Pressure 30.23 in
Visibility 10.0 miles
Clouds Clear
Heat Index 76 °F
Dew Point 55 °F
Humidity 57%
Rainfall 0.00 in
Snow Depth Not available.
UV 6 out of 12
Pollen 10.30 out of 12
Air Quality Not available.
Flu Activity Not available.
METAR KELD 231553Z AUTO 05005KT 10SM CLR 22/12 A3023 RMK AO2 SLP235 T02170117

More Conditions Fewer Conditions

Pressure 30.23 in
Visibility 10.0 miles
Clouds Clear
Heat Index 76 °F
Dew Point 55 °F
Humidity 57%
Rainfall 0.00 in
Snow Depth Not available.
UV 6 out of 12
Pollen 10.30 out of 12
Air Quality Not available.
Flu Activity Not available.
METAR KELD 231553Z AUTO 05005KT 10SM CLR 22/12 A3023 RMK AO2 SLP235 T02170117

More Conditions Fewer Conditions

10-Day Weather Forecast

Almanac

Astronomy

Sep. 23, 2014 Rise Set
Actual Time 7:01 AM CDT 7:08 PM CDT
Civil Twilight 6:37 AM CDT 7:33 PM CDT
Nautical Twilight 6:08 AM CDT 8:02 PM CDT
Astronomical Twilight 5:39 AM CDT 8:31 PM CDT
Moon 6:27 AM CDT 6:48 PM CDT
Length of Visible Light 12h 55m
Length of Day
12h 06m
Tomorrow will be 2m 3s shorter.
Waning Crescent, 0% of the Moon is Illuminated
Today
Waning Crescent
Sep 24
New
Oct 1
First Quarter
Oct 8
Full
Oct 15
Last Quarter

Today's Extremes

State Highs State Lows

Community

WunderPhotos

Upload Photos

1,755,737 photos uploaded!

WunderBlogs® & News

Nearby

Snow Depth

Station Depth Elevation
No new snow has been reported.

Earthquake Activity

City Distance Mag. Time & Date
No recent earthquake activity has been reported nearby.
Minimum magnitude displayed is 2.5.

Coastal Water Temperatures

Place Temperature
No Stations Reporting

Nearby Weather Stations